Time;durP1;ratioP1;P1;durP2;ratioP2;P2;SDS_P1;SDS_P2;PMS_P1;PMS_P2;Temp;Humidity;BMP_temperature;BMP_pressure;BME280_temperature;BME280_humidity;BME280_pressure;Samples;Min_cycle;Max_cycle;Signal;HPM_P1;HPM_P2
2024/01/28 00:02:16;;;;;;;15.48;7.57;;;1.10;99.90;;;;;;5044476;28;20029;-70
2024/01/28 00:04:41;;;;;;;24.35;8.80;;;1.10;99.90;;;;;;5048192;28;20048;-70
2024/01/28 00:07:07;;;;;;;23.00;8.90;;;1.00;99.90;;;;;;5046182;28;20033;-70
2024/01/28 00:09:32;;;;;;;19.58;7.55;;;0.90;99.90;;;;;;5042983;28;20087;-71
2024/01/28 00:11:58;;;;;;;19.10;7.63;;;0.80;99.90;;;;;;5022228;28;20131;-71
2024/01/28 00:14:24;;;;;;;15.07;8.57;;;0.70;99.90;;;;;;5035914;28;20037;-71
2024/01/28 00:16:49;;;;;;;21.00;7.65;;;0.60;99.90;;;;;;5032452;28;20045;-70
2024/01/28 00:19:15;;;;;;;17.73;7.00;;;0.50;99.90;;;;;;5034786;28;20072;-70
2024/01/28 00:21:41;;;;;;;17.48;7.35;;;0.50;99.90;;;;;;5034703;28;20524;-70
2024/01/28 00:24:07;;;;;;;17.30;8.80;;;0.50;99.90;;;;;;5031934;28;20060;-69
2024/01/28 00:26:42;;;;;;;19.30;7.88;;;0.50;99.90;;;;;;5047300;28;20033;-70
2024/01/28 00:29:08;;;;;;;21.27;8.05;;;0.50;99.90;;;;;;5050313;28;20139;-71
2024/01/28 00:31:34;;;;;;;19.33;8.23;;;0.50;99.90;;;;;;5042169;28;20053;-70
2024/01/28 00:34:00;;;;;;;17.50;7.55;;;0.50;99.90;;;;;;5046632;28;20076;-69
2024/01/28 00:36:26;;;;;;;20.42;8.43;;;0.50;99.90;;;;;;5051845;28;20056;-70
2024/01/28 00:38:53;;;;;;;21.48;7.88;;;0.50;99.90;;;;;;5013832;28;20045;-70
2024/01/28 00:41:23;;;;;;;18.85;8.45;;;0.50;99.90;;;;;;5035121;28;20087;-70
2024/01/28 00:43:49;;;;;;;;;;;0.50;99.90;;;;;;5041232;28;20037;-71
2024/01/28 00:46:15;;;;;;;18.35;7.43;;;0.40;99.90;;;;;;5052400;28;19917;-70
2024/01/28 00:48:41;;;;;;;18.15;9.70;;;0.40;99.90;;;;;;5047874;28;20098;-70
2024/01/28 00:51:07;;;;;;;20.00;7.75;;;0.40;99.90;;;;;;5052309;28;20127;-70
2024/01/28 00:53:32;;;;;;;24.20;8.38;;;0.40;99.90;;;;;;5040417;28;20057;-70
2024/01/28 00:55:58;;;;;;;21.55;7.88;;;0.40;99.90;;;;;;5050414;28;20029;-70
2024/01/28 00:58:23;;;;;;;27.20;8.88;;;0.40;99.90;;;;;;5041811;28;20033;-70
2024/01/28 01:00:49;;;;;;;18.33;8.73;;;0.40;99.90;;;;;;5042802;28;20116;-70
2024/01/28 01:03:15;;;;;;;18.67;8.77;;;0.40;99.90;;;;;;5042357;28;20057;-70
2024/01/28 01:05:41;;;;;;;24.77;7.80;;;0.40;99.90;;;;;;5042801;28;20156;-70
2024/01/28 01:08:10;;;;;;;21.00;7.85;;;0.40;99.90;;;;;;5037031;28;20053;-70
2024/01/28 01:10:36;;;;;;;26.23;9.02;;;0.30;99.90;;;;;;5049981;28;20465;-70
2024/01/28 01:13:02;;;;;;;14.43;7.90;;;0.30;99.90;;;;;;5050141;28;20048;-69
2024/01/28 01:15:29;;;;;;;21.25;9.45;;;0.20;99.90;;;;;;5044589;28;20040;-70
2024/01/28 01:17:56;;;;;;;22.90;7.85;;;0.20;99.90;;;;;;5038723;28;20064;-70
2024/01/28 01:20:21;;;;;;;15.85;8.00;;;0.20;99.90;;;;;;5029238;28;20481;-69
2024/01/28 01:22:49;;;;;;;19.23;8.00;;;0.20;99.90;;;;;;5042354;28;20086;-69
2024/01/28 01:25:15;;;;;;;20.45;8.93;;;0.20;99.90;;;;;;5060655;28;20037;-70
2024/01/28 01:27:41;;;;;;;19.85;8.30;;;0.10;99.90;;;;;;5027919;28;20045;-70
2024/01/28 01:30:08;;;;;;;21.63;8.68;;;0.10;99.90;;;;;;5045509;28;20140;-69
2024/01/28 01:32:35;;;;;;;18.98;8.65;;;0.10;99.90;;;;;;5048336;28;20508;-70
2024/01/28 01:35:02;;;;;;;20.40;8.90;;;0.10;99.90;;;;;;5042071;28;20450;-70
2024/01/28 01:37:28;;;;;;;22.70;8.80;;;0.10;99.90;;;;;;5042242;28;20123;-70
2024/01/28 01:39:53;;;;;;;18.25;9.32;;;0.10;99.90;;;;;;5046158;28;20119;-69
2024/01/28 01:42:19;;;;;;;21.08;9.27;;;0.10;99.90;;;;;;5049408;28;20472;-70
2024/01/28 01:44:45;;;;;;;18.80;9.45;;;0.10;99.90;;;;;;5039691;28;20029;-70
2024/01/28 01:47:10;;;;;;;19.20;9.40;;;0.10;99.90;;;;;;5046488;28;20094;-71
2024/01/28 01:49:36;;;;;;;23.73;10.05;;;0.10;99.90;;;;;;5049198;28;20037;-70
2024/01/28 01:52:03;;;;;;;24.48;10.27;;;0.10;99.90;;;;;;5044410;28;20435;-70
2024/01/28 01:54:29;;;;;;;23.02;10.23;;;0.10;99.90;;;;;;5024729;28;20037;-70
2024/01/28 01:56:55;;;;;;;20.90;10.77;;;0.20;99.90;;;;;;5040318;28;20041;-70
2024/01/28 01:59:21;;;;;;;27.23;10.80;;;0.20;99.90;;;;;;5034859;28;20052;-70
2024/01/28 02:01:47;;;;;;;27.85;10.98;;;0.20;99.90;;;;;;5040880;28;20445;-70
2024/01/28 02:04:13;;;;;;;22.50;9.88;;;0.20;99.90;;;;;;5037268;28;20052;-69
2024/01/28 02:06:38;;;;;;;21.67;9.82;;;0.20;99.90;;;;;;5049770;28;20043;-70
2024/01/28 02:09:06;;;;;;;29.92;11.73;;;0.20;99.90;;;;;;5035094;28;20041;-69
2024/01/28 02:11:33;;;;;;;23.75;11.35;;;0.30;99.90;;;;;;5047542;28;20052;-70
2024/01/28 02:13:58;;;;;;;28.00;12.88;;;0.30;99.90;;;;;;5044650;28;20040;-71
2024/01/28 02:16:25;;;;;;;22.00;11.10;;;0.30;99.90;;;;;;5047380;28;20481;-71
2024/01/28 02:18:51;;;;;;;26.95;11.40;;;0.40;99.90;;;;;;5031501;28;20035;-70
2024/01/28 02:21:17;;;;;;;22.40;11.38;;;0.40;99.90;;;;;;5041381;28;20033;-70
2024/01/28 02:23:42;;;;;;;26.60;11.82;;;0.40;99.90;;;;;;5042279;28;20049;-72
2024/01/28 02:26:08;;;;;;;28.50;12.68;;;0.40;99.90;;;;;;5045212;28;20033;-71
2024/01/28 02:28:34;;;;;;;21.67;11.43;;;0.40;99.90;;;;;;5047078;28;20468;-71
2024/01/28 02:30:59;;;;;;;25.58;11.15;;;0.40;99.90;;;;;;5030379;28;20057;-71
2024/01/28 02:33:25;;;;;;;26.48;11.95;;;0.40;99.90;;;;;;5024948;28;20495;-70
2024/01/28 02:35:51;;;;;;;27.73;12.45;;;0.40;99.90;;;;;;5046930;28;20170;-70
2024/01/28 02:38:16;;;;;;;27.70;12.10;;;0.50;99.90;;;;;;5045996;28;20069;-70
2024/01/28 02:40:42;;;;;;;24.40;11.80;;;0.50;99.90;;;;;;5047377;28;20068;-70
2024/01/28 02:43:08;;;;;;;21.95;11.80;;;0.50;99.90;;;;;;5041705;28;20361;-70
2024/01/28 02:45:34;;;;;;;26.33;11.90;;;0.50;99.90;;;;;;5048167;28;20051;-71
2024/01/28 02:47:59;;;;;;;27.63;11.93;;;0.60;99.90;;;;;;5043883;28;20055;-70
2024/01/28 02:50:25;;;;;;;21.80;11.98;;;0.60;99.90;;;;;;5047085;28;20048;-71
2024/01/28 02:52:50;;;;;;;28.98;13.77;;;0.60;99.90;;;;;;5043957;28;20072;-71
2024/01/28 02:55:16;;;;;;;27.27;12.55;;;0.60;99.90;;;;;;5047584;28;20099;-71
2024/01/28 02:57:42;;;;;;;23.48;12.20;;;0.60;99.90;;;;;;5045645;28;20047;-71
2024/01/28 03:00:08;;;;;;;27.30;12.75;;;0.60;99.90;;;;;;5042287;28;20052;-69
2024/01/28 03:02:33;;;;;;;23.70;12.25;;;0.60;99.90;;;;;;5047776;28;20049;-71
2024/01/28 03:04:59;;;;;;;24.75;13.30;;;0.60;99.90;;;;;;5031689;28;20056;-71
2024/01/28 03:07:25;;;;;;;20.48;12.13;;;0.60;99.90;;;;;;5040515;28;20042;-68
2024/01/28 03:09:50;;;;;;;24.67;12.13;;;0.60;99.90;;;;;;5029033;28;20088;-70
2024/01/28 03:12:16;;;;;;;26.40;11.35;;;0.50;99.90;;;;;;5055858;28;20454;-70
2024/01/28 03:14:41;;;;;;;24.77;12.50;;;0.50;99.90;;;;;;5060278;28;20055;-69
2024/01/28 03:17:07;;;;;;;26.00;12.00;;;0.50;99.90;;;;;;5041966;28;20083;-71
2024/01/28 03:19:33;;;;;;;27.02;12.07;;;0.50;99.90;;;;;;5032304;28;20606;-70
2024/01/28 03:21:58;;;;;;;23.95;11.10;;;0.50;99.90;;;;;;5045671;28;20048;-71
2024/01/28 03:24:24;;;;;;;26.70;12.13;;;0.50;99.90;;;;;;5026798;28;20033;-69
2024/01/28 03:26:49;;;;;;;27.63;12.88;;;0.50;99.90;;;;;;5043646;28;20389;-71
2024/01/28 03:29:15;;;;;;;22.42;11.38;;;0.50;99.90;;;;;;5043806;28;20183;-70
2024/01/28 03:31:41;;;;;;;25.10;11.25;;;0.50;99.90;;;;;;5034954;28;20057;-71
2024/01/28 03:34:07;;;;;;;30.98;12.32;;;0.50;99.90;;;;;;5044210;28;20037;-71
2024/01/28 03:36:32;;;;;;;26.45;12.05;;;0.50;99.90;;;;;;5037104;28;20040;-71
2024/01/28 03:38:58;;;;;;;27.30;12.23;;;0.50;99.90;;;;;;5042204;28;20037;-71
2024/01/28 03:41:23;;;;;;;26.52;12.15;;;0.60;99.90;;;;;;5046144;28;20389;-72
2024/01/28 03:43:49;;;;;;;25.83;11.40;;;0.60;99.90;;;;;;5025422;28;20331;-69
2024/01/28 03:46:15;;;;;;;24.27;11.65;;;0.60;99.90;;;;;;5048902;28;20037;-71
2024/01/28 03:48:41;;;;;;;24.27;12.05;;;0.60;99.90;;;;;;5049852;28;20041;-70
2024/01/28 03:51:06;;;;;;;24.48;11.32;;;0.60;99.90;;;;;;5045507;28;20123;-71
2024/01/28 03:53:32;;;;;;;20.95;11.43;;;0.60;99.90;;;;;;5056549;28;20068;-69
2024/01/28 03:55:58;;;;;;;27.88;11.70;;;0.60;99.90;;;;;;5049083;28;20040;-71
2024/01/28 03:58:24;;;;;;;22.40;12.80;;;0.60;99.90;;;;;;5042477;28;20045;-70
2024/01/28 04:00:50;;;;;;;33.60;13.15;;;0.60;99.90;;;;;;5048729;28;20120;-71
2024/01/28 04:03:15;;;;;;;27.73;11.73;;;0.50;99.90;;;;;;5050088;28;20722;-70
2024/01/28 04:05:43;;;;;;;24.05;11.68;;;0.50;99.90;;;;;;5055082;28;20036;-70
2024/01/28 04:08:09;;;;;;;20.70;10.98;;;0.40;99.90;;;;;;5046258;28;20091;-70
2024/01/28 04:10:35;;;;;;;23.65;11.43;;;0.40;99.90;;;;;;5039683;28;20029;-72
2024/01/28 04:13:01;;;;;;;27.05;11.65;;;0.30;99.90;;;;;;5051476;28;20106;-71
2024/01/28 04:15:26;;;;;;;21.17;11.52;;;0.20;99.90;;;;;;5048008;28;20037;-70
2024/01/28 04:17:52;;;;;;;24.35;11.18;;;0.20;99.90;;;;;;5026393;28;20527;-70
2024/01/28 04:20:18;;;;;;;21.90;11.25;;;0.20;99.90;;;;;;5033252;28;20040;-70
2024/01/28 04:22:43;;;;;;;26.60;11.25;;;0.10;99.90;;;;;;5028622;28;20052;-69
2024/01/28 04:25:09;;;;;;;24.48;11.70;;;0.10;99.90;;;;;;5046051;28;20029;-70
2024/01/28 04:27:35;;;;;;;26.48;12.05;;;0.10;99.90;;;;;;5032289;28;20044;-70
2024/01/28 04:30:00;;;;;;;27.05;11.38;;;0.10;99.90;;;;;;5047004;28;20077;-70
2024/01/28 04:32:26;;;;;;;26.77;11.70;;;0.00;99.90;;;;;;5040319;28;20059;-70
2024/01/28 04:34:52;;;;;;;22.45;12.70;;;0.00;99.90;;;;;;5050551;28;20041;-70
2024/01/28 04:37:17;;;;;;;22.75;11.15;;;-0.10;99.90;;;;;;5042585;28;20572;-69
2024/01/28 04:39:44;;;;;;;23.70;11.20;;;-0.20;99.90;;;;;;5043563;28;20040;-69
2024/01/28 04:42:10;;;;;;;22.85;10.55;;;-0.20;99.90;;;;;;5045069;28;20042;-70
2024/01/28 04:44:35;;;;;;;20.65;11.30;;;-0.20;99.90;;;;;;5046563;28;20128;-70
2024/01/28 04:47:02;;;;;;;21.77;11.40;;;-0.20;99.90;;;;;;5037588;28;20029;-70
2024/01/28 04:49:27;;;;;;;24.83;11.68;;;-0.20;99.90;;;;;;5042627;28;20115;-70
2024/01/28 04:51:53;;;;;;;23.25;10.85;;;-0.30;99.90;;;;;;5030978;28;20132;-70
2024/01/28 04:54:19;;;;;;;20.33;11.20;;;-0.30;99.90;;;;;;5028690;28;20059;-71
2024/01/28 04:56:45;;;;;;;21.50;11.35;;;-0.30;99.90;;;;;;5048891;28;20041;-70
2024/01/28 04:59:11;;;;;;;23.08;11.68;;;-0.30;99.90;;;;;;5025571;28;20038;-70
2024/01/28 05:01:38;;;;;;;23.20;11.48;;;-0.30;99.90;;;;;;5030854;28;20040;-70
2024/01/28 05:04:04;;;;;;;28.50;11.82;;;-0.30;99.90;;;;;;5020352;28;20037;-70
2024/01/28 05:06:36;;;;;;;25.58;11.73;;;-0.40;99.90;;;;;;5037146;28;20512;-72
2024/01/28 05:09:06;;;;;;;28.00;11.65;;;-0.40;99.90;;;;;;5044857;28;20037;-70
2024/01/28 05:11:32;;;;;;;;;;;-0.40;99.90;;;;;;5051659;28;20116;-70
2024/01/28 05:14:01;;;;;;;22.05;11.18;;;-0.40;99.90;;;;;;5045078;28;20003;-71
2024/01/28 05:16:27;;;;;;;28.55;12.00;;;-0.40;99.90;;;;;;5030375;28;20041;-71
2024/01/28 05:18:53;;;;;;;23.60;12.02;;;-0.40;99.90;;;;;;5049838;28;20477;-69
2024/01/28 05:21:19;;;;;;;24.30;12.80;;;-0.40;99.90;;;;;;5051479;28;20029;-71
2024/01/28 05:23:48;;;;;;;26.13;11.93;;;-0.40;99.90;;;;;;5045945;28;20029;-70
2024/01/28 05:26:14;;;;;;;22.25;11.98;;;-0.40;99.90;;;;;;5049821;28;20037;-69
2024/01/28 05:28:40;;;;;;;19.33;10.07;;;-0.40;99.90;;;;;;5046775;28;20733;-70
2024/01/28 05:31:08;;;;;;;26.15;12.98;;;-0.40;99.90;;;;;;5033008;28;20045;-70
2024/01/28 05:33:37;;;;;;;18.75;10.60;;;-0.40;99.90;;;;;;5044768;28;20045;-69
2024/01/28 05:36:15;;;;;;;25.00;10.75;;;-0.40;99.90;;;;;;5058794;28;20042;-70
2024/01/28 05:38:42;;;;;;;23.80;10.80;;;-0.40;99.90;;;;;;5030254;28;20041;-70
2024/01/28 05:41:08;;;;;;;19.05;10.55;;;-0.40;99.90;;;;;;5048863;28;20075;-70
2024/01/28 05:43:34;;;;;;;19.33;11.07;;;-0.50;99.90;;;;;;5045966;28;20037;-70
2024/01/28 05:46:03;;;;;;;19.52;10.32;;;-0.50;99.90;;;;;;5043415;28;20037;-69
2024/01/28 05:48:30;;;;;;;22.55;11.38;;;-0.50;99.90;;;;;;5041716;28;20037;-69
2024/01/28 05:50:55;;;;;;;22.80;10.60;;;-0.60;99.90;;;;;;5037409;28;20048;-71
2024/01/28 05:53:21;;;;;;;26.23;11.05;;;-0.60;99.90;;;;;;5029377;28;20045;-70
2024/01/28 05:55:47;;;;;;;20.63;10.20;;;-0.50;99.90;;;;;;5046020;28;20563;-70
2024/01/28 05:58:12;;;;;;;18.27;10.40;;;-0.50;99.90;;;;;;5041603;28;20032;-71
2024/01/28 06:00:38;;;;;;;20.95;10.18;;;-0.60;99.90;;;;;;5048382;28;20033;-70
2024/01/28 06:03:04;;;;;;;25.17;10.65;;;-0.60;99.90;;;;;;5039824;28;20151;-70
2024/01/28 06:05:29;;;;;;;27.55;11.68;;;-0.60;99.90;;;;;;5025926;28;20033;-70
2024/01/28 06:07:55;;;;;;;20.55;10.05;;;-0.60;99.90;;;;;;5045891;28;20118;-70
2024/01/28 06:10:21;;;;;;;20.05;10.55;;;-0.60;99.90;;;;;;5048310;28;20072;-70
2024/01/28 06:12:46;;;;;;;21.75;11.00;;;-0.60;99.90;;;;;;5046727;28;20103;-70
2024/01/28 06:15:12;;;;;;;24.83;11.43;;;-0.60;99.90;;;;;;5043881;28;20045;-73
2024/01/28 06:17:38;;;;;;;28.40;11.15;;;-0.60;99.90;;;;;;5049667;28;20053;-69
2024/01/28 06:20:05;;;;;;;23.73;10.82;;;-0.60;99.90;;;;;;5043275;28;20045;-70
2024/01/28 06:22:31;;;;;;;24.98;11.20;;;-0.60;99.90;;;;;;5047647;28;20382;-69
2024/01/28 06:24:58;;;;;;;24.65;12.75;;;-0.60;99.90;;;;;;5044799;28;20043;-70
2024/01/28 06:27:24;;;;;;;21.30;11.35;;;-0.60;99.90;;;;;;5041984;28;20040;-69
2024/01/28 06:29:49;;;;;;;21.77;11.35;;;-0.60;99.90;;;;;;5032755;28;20036;-71
2024/01/28 06:32:17;;;;;;;24.80;11.65;;;-0.50;99.90;;;;;;5041284;28;20043;-69
2024/01/28 06:34:44;;;;;;;18.65;11.02;;;-0.60;99.90;;;;;;5023570;28;20045;-70
2024/01/28 06:37:10;;;;;;;27.27;11.38;;;-0.50;99.90;;;;;;5032033;28;20365;-70
2024/01/28 06:39:35;;;;;;;24.42;11.13;;;-0.60;99.90;;;;;;5029883;28;20037;-69
2024/01/28 06:42:02;;;;;;;21.58;10.82;;;-0.60;99.90;;;;;;5031175;28;20033;-69
2024/01/28 06:44:27;;;;;;;20.75;11.75;;;-0.60;99.90;;;;;;5037060;28;20051;-70
2024/01/28 06:46:53;;;;;;;31.55;12.40;;;-0.60;99.90;;;;;;5044284;28;20036;-69
2024/01/28 06:49:20;;;;;;;24.05;10.30;;;-0.60;99.90;;;;;;5045273;28;20060;-70
2024/01/28 06:51:45;;;;;;;21.83;11.48;;;-0.60;99.90;;;;;;5038551;28;20099;-70
2024/01/28 06:54:11;;;;;;;19.30;10.38;;;-0.60;99.90;;;;;;5034043;28;20469;-70
2024/01/28 06:56:37;;;;;;;24.45;11.13;;;-0.60;99.90;;;;;;5029814;28;20094;-70
2024/01/28 06:59:02;;;;;;;17.45;10.98;;;-0.60;99.90;;;;;;5045875;28;20514;-70
2024/01/28 07:01:29;;;;;;;21.13;11.25;;;-0.60;99.90;;;;;;5031390;28;20025;-70
2024/01/28 07:03:54;;;;;;;26.15;12.18;;;-0.60;99.90;;;;;;5049850;28;20048;-71
2024/01/28 07:06:20;;;;;;;27.88;11.57;;;-0.60;99.90;;;;;;5049328;28;20496;-70
2024/01/28 07:08:46;;;;;;;22.67;11.00;;;-0.50;99.90;;;;;;5049100;28;20052;-71
2024/01/28 07:11:11;;;;;;;20.40;10.38;;;-0.50;99.90;;;;;;5049035;28;20041;-71
2024/01/28 07:13:37;;;;;;;22.50;11.63;;;-0.50;99.90;;;;;;5049729;28;20038;-70
2024/01/28 07:16:03;;;;;;;20.83;10.98;;;-0.50;99.90;;;;;;5046516;28;20481;-70
2024/01/28 07:18:29;;;;;;;23.80;11.30;;;-0.50;99.90;;;;;;5047157;28;20029;-72
2024/01/28 07:20:54;;;;;;;23.25;10.80;;;-0.50;99.90;;;;;;5045449;28;20048;-71
2024/01/28 07:23:20;;;;;;;18.75;10.60;;;-0.50;99.90;;;;;;5038798;28;20056;-69
2024/01/28 07:25:46;;;;;;;21.48;9.77;;;-0.50;99.90;;;;;;5045477;28;20083;-69
2024/01/28 07:28:12;;;;;;;20.88;10.05;;;-0.50;99.90;;;;;;5036352;28;20045;-68
2024/01/28 07:30:37;;;;;;;22.55;9.57;;;-0.40;99.90;;;;;;5045806;28;20080;-71
2024/01/28 07:33:07;;;;;;;20.40;10.23;;;-0.40;99.90;;;;;;5026790;28;20512;-71
2024/01/28 07:35:33;;;;;;;;;;;-0.40;99.90;;;;;;5047892;28;20134;-70
2024/01/28 07:37:59;;;;;;;16.55;10.18;;;-0.40;99.90;;;;;;5030076;28;19931;-71
2024/01/28 07:40:25;;;;;;;17.98;9.35;;;-0.40;99.90;;;;;;5038996;28;20513;-70
2024/01/28 07:42:50;;;;;;;20.10;10.15;;;-0.40;99.90;;;;;;5042883;28;20478;-69
2024/01/28 07:45:16;;;;;;;28.98;10.95;;;-0.40;99.90;;;;;;5046576;28;20035;-71
2024/01/28 07:47:42;;;;;;;23.67;9.82;;;-0.50;99.90;;;;;;5053015;28;20650;-70
2024/01/28 07:50:08;;;;;;;21.05;10.00;;;-0.40;99.90;;;;;;5036039;28;20046;-70
2024/01/28 07:52:34;;;;;;;21.02;9.05;;;-0.40;99.90;;;;;;5015134;28;20091;-70
2024/01/28 07:54:59;;;;;;;18.15;9.15;;;-0.40;99.90;;;;;;5031609;28;20050;-71
2024/01/28 07:57:25;;;;;;;21.33;10.75;;;-0.40;99.90;;;;;;5033105;28;20073;-71
2024/01/28 07:59:51;;;;;;;17.65;9.70;;;-0.40;99.90;;;;;;5039657;28;20120;-71
2024/01/28 08:02:16;;;;;;;15.68;9.40;;;-0.40;99.90;;;;;;5053373;28;20118;-70
2024/01/28 08:04:44;;;;;;;19.58;9.85;;;-0.40;99.90;;;;;;5052200;28;20040;-70
2024/01/28 08:07:10;;;;;;;22.92;9.30;;;-0.40;99.90;;;;;;5036156;28;20116;-70
2024/01/28 08:09:36;;;;;;;19.27;9.02;;;-0.40;99.90;;;;;;5013342;28;20163;-70
2024/01/28 08:12:07;;;;;;;22.27;9.40;;;-0.40;99.90;;;;;;5017108;28;20049;-70
2024/01/28 08:14:32;;;;;;;25.33;10.02;;;-0.30;99.90;;;;;;5051501;28;20040;-71
2024/01/28 08:16:58;;;;;;;21.08;9.50;;;-0.20;99.90;;;;;;5049957;28;20037;-71
2024/01/28 08:19:23;;;;;;;19.92;9.30;;;-0.20;99.90;;;;;;5047752;28;20037;-70
2024/01/28 08:21:49;;;;;;;20.85;9.70;;;-0.10;99.90;;;;;;5016179;28;20063;-70
2024/01/28 08:24:15;;;;;;;16.45;9.45;;;0.00;99.90;;;;;;5044398;28;20052;-70
2024/01/28 08:26:40;;;;;;;17.52;9.05;;;0.10;99.90;;;;;;5040163;28;20132;-70
2024/01/28 08:29:06;;;;;;;19.95;9.23;;;0.30;99.90;;;;;;5035703;28;20041;-70
2024/01/28 08:31:31;;;;;;;14.85;8.43;;;0.40;99.90;;;;;;5048251;28;20560;-70
2024/01/28 08:33:57;;;;;;;15.98;8.40;;;0.60;99.90;;;;;;5048417;28;20047;-71
2024/01/28 08:36:23;;;;;;;16.42;8.63;;;0.70;99.90;;;;;;5049636;28;20491;-70
2024/01/28 08:38:48;;;;;;;16.77;7.88;;;0.90;99.90;;;;;;5028472;28;20072;-71
2024/01/28 08:41:14;;;;;;;14.68;7.93;;;1.00;99.90;;;;;;5035752;28;20041;-72
2024/01/28 08:43:40;;;;;;;13.82;6.90;;;1.00;99.90;;;;;;5031994;28;20030;-71
2024/01/28 08:46:06;;;;;;;24.50;8.68;;;1.10;99.90;;;;;;5033149;28;20041;-71
2024/01/28 08:48:32;;;;;;;15.35;7.72;;;1.20;99.90;;;;;;5042583;28;20139;-71
2024/01/28 08:50:57;;;;;;;13.80;6.55;;;1.20;99.90;;;;;;5044869;28;20442;-71
2024/01/28 08:53:23;;;;;;;17.00;7.00;;;1.30;99.90;;;;;;5029247;28;20076;-69
2024/01/28 08:55:48;;;;;;;14.57;7.75;;;1.40;99.90;;;;;;5043936;28;20036;-71
2024/01/28 08:58:15;;;;;;;13.00;6.10;;;1.50;99.90;;;;;;5048231;28;20045;-70
2024/01/28 09:00:41;;;;;;;12.73;5.85;;;1.50;99.90;;;;;;5040609;28;20083;-68
2024/01/28 09:03:06;;;;;;;14.88;7.38;;;1.70;99.90;;;;;;5040678;28;20077;-70
2024/01/28 09:05:32;;;;;;;12.50;6.32;;;1.70;99.90;;;;;;5023126;28;20076;-68
2024/01/28 09:07:58;;;;;;;12.68;6.50;;;1.70;99.90;;;;;;5031305;28;20083;-68
2024/01/28 09:10:23;;;;;;;11.80;6.22;;;1.80;99.90;;;;;;5031154;28;20052;-69
2024/01/28 09:12:49;;;;;;;11.43;5.90;;;1.90;99.90;;;;;;5029047;28;20447;-69
2024/01/28 09:15:15;;;;;;;11.38;5.88;;;2.00;99.90;;;;;;5044511;28;20132;-70
2024/01/28 09:17:41;;;;;;;16.30;6.68;;;2.00;99.90;;;;;;5051500;28;20045;-70
2024/01/28 09:20:07;;;;;;;13.63;6.32;;;2.10;99.90;;;;;;5049822;28;20109;-69
2024/01/28 09:22:36;;;;;;;12.68;6.00;;;2.20;99.90;;;;;;5046892;28;20136;-69
2024/01/28 09:25:06;;;;;;;14.05;5.95;;;2.20;99.90;;;;;;5037529;28;20036;-70
2024/01/28 09:27:32;;;;;;;11.40;5.60;;;2.20;99.90;;;;;;5048883;28;20051;-70
2024/01/28 09:29:57;;;;;;;12.85;5.72;;;2.20;99.90;;;;;;5046957;28;20060;-71
2024/01/28 09:32:26;;;;;;;13.15;6.03;;;2.20;99.90;;;;;;5049032;28;20413;-70
2024/01/28 09:34:52;;;;;;;17.92;5.75;;;2.30;99.90;;;;;;5033290;28;20048;-71
2024/01/28 09:37:18;;;;;;;12.20;5.45;;;2.40;99.90;;;;;;5023015;28;20118;-70
2024/01/28 09:39:45;;;;;;;13.70;5.80;;;2.40;99.90;;;;;;5029022;28;20587;-73
2024/01/28 09:42:21;;;;;;;12.98;6.25;;;2.50;99.90;;;;;;5050056;28;20036;-69
2024/01/28 09:44:49;;;;;;;12.35;5.22;;;2.60;99.90;;;;;;5040684;28;20539;-68
2024/01/28 09:47:16;;;;;;;9.63;5.15;;;2.70;99.90;;;;;;5045832;28;20531;-70
2024/01/28 09:49:43;;;;;;;10.70;5.40;;;2.80;99.90;;;;;;5035392;28;20132;-72
2024/01/28 09:52:10;;;;;;;7.60;4.85;;;2.90;99.90;;;;;;5031266;28;20046;-72
2024/01/28 09:54:37;;;;;;;10.38;4.78;;;2.90;99.90;;;;;;5037842;28;20116;-70
2024/01/28 09:57:05;;;;;;;12.05;5.03;;;3.00;99.90;;;;;;5045289;28;20045;-71
2024/01/28 09:59:33;;;;;;;7.88;4.40;;;3.10;99.90;;;;;;5045430;28;20045;-72
2024/01/28 10:02:00;;;;;;;9.48;5.03;;;3.20;99.90;;;;;;5043618;28;20438;-72
2024/01/28 10:04:27;;;;;;;12.00;5.35;;;3.20;99.90;;;;;;5048659;28;20043;-71
2024/01/28 10:06:57;;;;;;;8.43;4.78;;;3.30;99.90;;;;;;5037775;28;20091;-72
2024/01/28 10:09:24;;;;;;;8.15;5.03;;;3.30;99.90;;;;;;5049684;28;20578;-73
2024/01/28 10:11:51;;;;;;;10.75;5.97;;;3.50;99.90;;;;;;5054945;28;20105;-71
2024/01/28 10:14:17;;;;;;;10.23;4.70;;;3.60;99.90;;;;;;5046153;28;20497;-70
2024/01/28 10:16:46;;;;;;;9.35;4.07;;;3.70;99.90;;;;;;5032282;28;20037;-72
2024/01/28 10:19:12;;;;;;;6.97;3.85;;;3.80;99.90;;;;;;5048613;28;20029;-71
2024/01/28 10:21:37;;;;;;;8.75;4.82;;;4.00;99.90;;;;;;5048153;28;20067;-73
2024/01/28 10:24:03;;;;;;;5.90;3.92;;;4.10;99.90;;;;;;5041861;28;20541;-71
2024/01/28 10:26:29;;;;;;;9.43;4.05;;;4.30;99.90;;;;;;5026882;28;20139;-71
2024/01/28 10:28:55;;;;;;;7.75;3.70;;;4.50;99.90;;;;;;5046357;28;20421;-70
2024/01/28 10:31:24;;;;;;;9.75;4.18;;;4.60;99.90;;;;;;5042501;28;20071;-69
2024/01/28 10:33:50;;;;;;;7.40;3.80;;;4.70;99.90;;;;;;5042385;28;20049;-73
2024/01/28 10:36:17;;;;;;;9.82;4.20;;;4.80;99.90;;;;;;5047277;28;20060;-72
2024/01/28 10:38:46;;;;;;;8.05;3.55;;;4.80;99.90;;;;;;5036040;28;20399;-69
2024/01/28 10:41:17;;;;;;;9.48;3.83;;;5.00;99.90;;;;;;5043364;28;20385;-69
2024/01/28 10:43:51;;;;;;;20.85;5.78;;;5.10;99.90;;;;;;5044413;28;20040;-69
2024/01/28 10:46:26;;;;;;;8.63;3.70;;;5.10;99.90;;;;;;5049067;28;20041;-69
2024/01/28 10:48:54;;;;;;;7.80;3.63;;;5.20;99.90;;;;;;5048090;28;20075;-72
2024/01/28 10:51:20;;;;;;;8.75;3.55;;;5.20;99.90;;;;;;5048895;28;20044;-68
2024/01/28 10:53:46;;;;;;;9.63;3.53;;;5.20;99.90;;;;;;5044199;28;20535;-69
2024/01/28 10:56:13;;;;;;;5.30;3.20;;;5.30;99.90;;;;;;5050185;28;20416;-71
2024/01/28 10:58:39;;;;;;;6.82;3.58;;;5.30;99.90;;;;;;5047763;28;21637;-68
2024/01/28 11:01:07;;;;;;;7.70;3.35;;;5.30;99.90;;;;;;5034168;28;20029;-69
2024/01/28 11:03:33;;;;;;;7.07;3.47;;;5.40;99.90;;;;;;5036179;28;20064;-68
2024/01/28 11:06:00;;;;;;;5.55;3.13;;;5.40;99.90;;;;;;5035682;28;20041;-70
2024/01/28 11:08:27;;;;;;;8.55;3.42;;;5.40;99.90;;;;;;5050444;28;20388;-70
2024/01/28 11:10:52;;;;;;;6.32;3.28;;;5.50;99.90;;;;;;5050357;28;20041;-71
2024/01/28 11:13:18;;;;;;;9.90;3.08;;;5.60;99.90;;;;;;5026787;28;20107;-70
2024/01/28 11:15:45;;;;;;;7.35;2.90;;;5.60;99.90;;;;;;5033537;28;20067;-71
2024/01/28 11:18:11;;;;;;;8.55;3.00;;;5.70;99.90;;;;;;5044522;28;20154;-70
2024/01/28 11:20:37;;;;;;;6.95;3.22;;;5.70;99.90;;;;;;5036735;28;20464;-71
2024/01/28 11:23:04;;;;;;;5.78;2.80;;;5.90;99.90;;;;;;5049977;28;20037;-70
2024/01/28 11:25:30;;;;;;;7.90;2.45;;;6.00;99.90;;;;;;5052203;28;20416;-71
2024/01/28 11:28:01;;;;;;;5.75;2.80;;;6.10;99.90;;;;;;5050222;28;20037;-70
2024/01/28 11:30:27;;;;;;;5.85;2.60;;;6.20;99.90;;;;;;5053142;28;20438;-68
2024/01/28 11:33:06;;;;;;;3.95;2.30;;;6.30;99.90;;;;;;5052263;28;20057;-70
2024/01/28 11:35:33;;;;;;;9.57;3.00;;;6.50;99.90;;;;;;5051109;28;20761;-69
2024/01/28 11:38:04;;;;;;;4.82;3.00;;;6.40;99.90;;;;;;5026960;28;20120;-71
2024/01/28 11:40:36;;;;;;;9.85;3.38;;;6.50;99.90;;;;;;5019284;28;20037;-71
2024/01/28 11:43:06;;;;;;;5.10;2.58;;;6.50;99.90;;;;;;5036562;28;20067;-69
2024/01/28 11:45:31;;;;;;;6.00;2.70;;;6.60;99.90;;;;;;5053487;28;20072;-68
2024/01/28 11:47:57;;;;;;;6.43;2.72;;;6.60;99.90;;;;;;5048945;28;20071;-68
2024/01/28 11:50:24;;;;;;;7.40;2.70;;;6.70;99.90;;;;;;5051933;28;20086;-70
2024/01/28 11:52:49;;;;;;;4.63;2.63;;;6.70;99.90;;;;;;5049101;28;20114;-71
2024/01/28 11:55:17;;;;;;;5.68;2.33;;;6.70;99.90;;;;;;5050810;28;20489;-70
2024/01/28 11:57:47;;;;;;;7.70;2.92;;;6.70;99.90;;;;;;5047502;28;20045;-70
2024/01/28 12:00:14;;;;;;;7.60;2.80;;;6.80;99.90;;;;;;5039674;28;20045;-70
2024/01/28 12:02:42;;;;;;;7.38;2.50;;;6.80;99.90;;;;;;5052313;28;20055;-70
2024/01/28 12:05:08;;;;;;;4.82;2.72;;;6.90;99.90;;;;;;5052003;28;20082;-72
2024/01/28 12:07:36;;;;;;;5.72;2.67;;;6.90;99.90;;;;;;5047950;28;20053;-67
2024/01/28 12:10:05;;;;;;;5.85;2.35;;;7.00;99.90;;;;;;5049764;28;20033;-72
2024/01/28 12:12:34;;;;;;;6.95;2.80;;;7.00;99.90;;;;;;5050778;28;20117;-71
2024/01/28 12:15:02;;;;;;;4.18;2.50;;;7.10;99.90;;;;;;5049578;28;20040;-70
2024/01/28 12:17:27;;;;;;;5.57;2.63;;;7.10;99.90;;;;;;5051097;28;20037;-70
2024/01/28 12:19:53;;;;;;;6.55;2.63;;;7.10;99.90;;;;;;5047757;28;20059;-70
2024/01/28 12:22:19;;;;;;;5.07;2.53;;;7.20;99.90;;;;;;5032817;28;20033;-71
2024/01/28 12:24:48;;;;;;;6.88;2.70;;;7.20;99.90;;;;;;5046367;28;20091;-68
2024/01/28 12:27:14;;;;;;;6.22;2.88;;;7.20;99.90;;;;;;5050585;28;20083;-71
2024/01/28 12:29:43;;;;;;;6.85;2.75;;;7.20;99.90;;;;;;5035002;28;20099;-69
2024/01/28 12:32:09;;;;;;;4.85;2.50;;;7.30;99.90;;;;;;5051905;28;20047;-70
2024/01/28 12:34:38;;;;;;;4.28;2.17;;;7.30;99.90;;;;;;5042327;28;20045;-67
2024/01/28 12:37:04;;;;;;;9.25;2.63;;;7.40;99.90;;;;;;5051158;28;20124;-70
2024/01/28 12:39:29;;;;;;;6.05;2.33;;;7.40;99.90;;;;;;5047625;28;20116;-69